WZZ33PN LIME-EPMO
Flight info
| Callsign | WZZ33PN |
|---|---|
| Flight time | 1h 43m |
| Altitude | 19000 |
| Route | OSKOR L615 NEVNI/N0443F340 DCT TAGIP DCT DIBAX DCT VESAL DCT MOBDO DCT MALUG/N0443F350 DCT LANUX DCT OKENO DCT GOGUS |
| Aircraft | A21N/M-SDE2E3FGHIRWXY/LB1 |
Departure
| Time | 2026-03-27 15:16 |
|---|---|
| Airport | Il Caravaggio International Airport (LIME) |
Arrival
| Time | 2026-03-27 16:59 |
|---|---|
| Airport | Warsaw Modlin Airport (EPMO) |
| Time | Latitude | Longitude | Altitude | Speed | Heading |
|---|---|---|---|---|---|
| 2026-03-27 14:56 | 45.66683 | 9.69866 | 785 ft | 0 kts | 195° |
| 2026-03-27 15:06 | 45.66685 | 9.69867 | 785 ft | 2 kts | 196° |
| 2026-03-27 15:06 | 45.66699 | 9.69874 | 785 ft | 2 kts | 196° |
| 2026-03-27 15:06 | 45.66713 | 9.69879 | 786 ft | 2 kts | 194° |
| 2026-03-27 15:06 | 45.66728 | 9.69885 | 786 ft | 2 kts | 195° |
| 2026-03-27 15:07 | 45.66740 | 9.69889 | 786 ft | 0 kts | 195° |
| 2026-03-27 15:07 | 45.66752 | 9.69892 | 787 ft | 2 kts | 164° |
| 2026-03-27 15:07 | 45.66765 | 9.69881 | 787 ft | 2 kts | 128° |
| 2026-03-27 15:07 | 45.66769 | 9.69870 | 787 ft | 1 kts | 106° |
| 2026-03-27 15:08 | 45.66771 | 9.69860 | 787 ft | 0 kts | 104° |
| 2026-03-27 15:10 | 45.66770 | 9.69864 | 787 ft | 1 kts | 105° |
| 2026-03-27 15:10 | 45.66765 | 9.69890 | 786 ft | 3 kts | 105° |
| 2026-03-27 15:10 | 45.66756 | 9.69938 | 787 ft | 5 kts | 105° |
| 2026-03-27 15:10 | 45.66744 | 9.70004 | 787 ft | 7 kts | 105° |
| 2026-03-27 15:11 | 45.66727 | 9.70095 | 787 ft | 11 kts | 105° |
| 2026-03-27 15:11 | 45.66704 | 9.70218 | 787 ft | 14 kts | 105° |
| 2026-03-27 15:11 | 45.66675 | 9.70370 | 787 ft | 17 kts | 105° |
| 2026-03-27 15:11 | 45.66643 | 9.70545 | 786 ft | 18 kts | 105° |
| 2026-03-27 15:12 | 45.66610 | 9.70722 | 786 ft | 18 kts | 105° |
| 2026-03-27 15:12 | 45.66576 | 9.70905 | 784 ft | 19 kts | 105° |
| 2026-03-27 15:12 | 45.66539 | 9.71093 | 782 ft | 20 kts | 109° |
| 2026-03-27 15:12 | 45.66489 | 9.71289 | 779 ft | 21 kts | 105° |
| 2026-03-27 15:13 | 45.66454 | 9.71482 | 775 ft | 19 kts | 105° |
| 2026-03-27 15:13 | 45.66450 | 9.71678 | 771 ft | 20 kts | 76° |
| 2026-03-27 15:13 | 45.66473 | 9.71855 | 769 ft | 17 kts | 98° |
| 2026-03-27 15:13 | 45.66444 | 9.72020 | 767 ft | 17 kts | 105° |
| 2026-03-27 15:14 | 45.66418 | 9.72165 | 765 ft | 12 kts | 105° |
| 2026-03-27 15:14 | 45.66394 | 9.72294 | 764 ft | 14 kts | 105° |
| 2026-03-27 15:14 | 45.66375 | 9.72419 | 763 ft | 11 kts | 88° |
| 2026-03-27 15:14 | 45.66425 | 9.72485 | 762 ft | 8 kts | 8° |
| 2026-03-27 15:15 | 45.66460 | 9.72441 | 763 ft | 7 kts | 287° |
| 2026-03-27 15:15 | 45.66497 | 9.72241 | 764 ft | 52 kts | 284° |
| 2026-03-27 15:15 | 45.66653 | 9.71394 | 779 ft | 120 kts | 285° |
| 2026-03-27 15:15 | 45.66920 | 9.69981 | 823 ft | 170 kts | 283° |
| 2026-03-27 15:16 | 45.67211 | 9.68348 | 1388 ft | 173 kts | 280° |
| 2026-03-27 15:16 | 45.67152 | 9.66640 | 2074 ft | 176 kts | 248° |
| 2026-03-27 15:16 | 45.66363 | 9.65346 | 2744 ft | 176 kts | 221° |
| 2026-03-27 15:16 | 45.65434 | 9.64198 | 3146 ft | 183 kts | 225° |
| 2026-03-27 15:17 | 45.64502 | 9.62910 | 3511 ft | 193 kts | 227° |
| 2026-03-27 15:17 | 45.63524 | 9.61525 | 3941 ft | 200 kts | 227° |
| 2026-03-27 15:17 | 45.62546 | 9.60140 | 4464 ft | 202 kts | 227° |
| 2026-03-27 15:17 | 45.61549 | 9.58727 | 5004 ft | 205 kts | 224° |
| 2026-03-27 15:18 | 45.60247 | 9.57805 | 5322 ft | 220 kts | 185° |
| 2026-03-27 15:18 | 45.58763 | 9.58357 | 5612 ft | 230 kts | 143° |
| 2026-03-27 15:18 | 45.57838 | 9.60229 | 5865 ft | 241 kts | 101° |
| 2026-03-27 15:18 | 45.57881 | 9.62607 | 6251 ft | 250 kts | 75° |
| 2026-03-27 15:19 | 45.58322 | 9.65080 | 6695 ft | 266 kts | 73° |
| 2026-03-27 15:19 | 45.58743 | 9.67686 | 7359 ft | 273 kts | 76° |
| 2026-03-27 15:19 | 45.59093 | 9.70346 | 8159 ft | 275 kts | 78° |
| 2026-03-27 15:19 | 45.59389 | 9.73004 | 8946 ft | 276 kts | 80° |
| 2026-03-27 15:20 | 45.59654 | 9.75730 | 9763 ft | 276 kts | 81° |
| 2026-03-27 15:20 | 45.59897 | 9.78425 | 10421 ft | 282 kts | 81° |
| 2026-03-27 15:20 | 45.60143 | 9.81283 | 10775 ft | 298 kts | 82° |
| 2026-03-27 15:20 | 45.60386 | 9.84230 | 11338 ft | 305 kts | 82° |
| 2026-03-27 15:21 | 45.60626 | 9.87226 | 12099 ft | 305 kts | 82° |
| 2026-03-27 15:21 | 45.60865 | 9.90237 | 12766 ft | 308 kts | 82° |
| 2026-03-27 15:21 | 45.61101 | 9.93253 | 13401 ft | 311 kts | 82° |
| 2026-03-27 15:21 | 45.61343 | 9.96341 | 14037 ft | 315 kts | 82° |
| 2026-03-27 15:22 | 45.61585 | 9.99454 | 14650 ft | 318 kts | 82° |
| 2026-03-27 15:22 | 45.61828 | 10.02576 | 15238 ft | 322 kts | 82° |
| 2026-03-27 15:22 | 45.62075 | 10.05765 | 15840 ft | 325 kts | 82° |
| 2026-03-27 15:22 | 45.62322 | 10.08970 | 16435 ft | 328 kts | 82° |
| 2026-03-27 15:23 | 45.62568 | 10.12200 | 17028 ft | 330 kts | 82° |
| 2026-03-27 15:23 | 45.62815 | 10.15430 | 17568 ft | 333 kts | 82° |
| 2026-03-27 15:23 | 45.63065 | 10.18719 | 18156 ft | 335 kts | 82° |
| 2026-03-27 15:23 | 45.63315 | 10.22032 | 18707 ft | 337 kts | 82° |
| 2026-03-27 15:24 | 45.63567 | 10.25363 | 19251 ft | 339 kts | 82° |
| 2026-03-27 15:24 | 45.63821 | 10.28724 | 19798 ft | 342 kts | 82° |
| 2026-03-27 15:24 | 45.64074 | 10.32101 | 20312 ft | 344 kts | 82° |
| 2026-03-27 15:24 | 45.64323 | 10.35461 | 20801 ft | 347 kts | 82° |
| 2026-03-27 15:25 | 45.64621 | 10.38883 | 21291 ft | 348 kts | 76° |
| 2026-03-27 15:25 | 45.65547 | 10.42046 | 21765 ft | 347 kts | 54° |
| 2026-03-27 15:25 | 45.67209 | 10.44521 | 22282 ft | 346 kts | 36° |
| 2026-03-27 15:25 | 45.69194 | 10.46406 | 22710 ft | 349 kts | 33° |
| 2026-03-27 15:26 | 45.71245 | 10.48297 | 23144 ft | 352 kts | 33° |
| 2026-03-27 15:26 | 45.73306 | 10.50204 | 23600 ft | 354 kts | 33° |
| 2026-03-27 15:26 | 45.75372 | 10.52126 | 24023 ft | 357 kts | 33° |
| 2026-03-27 15:26 | 45.77463 | 10.54077 | 24425 ft | 360 kts | 33° |
| 2026-03-27 15:27 | 45.79567 | 10.56049 | 24832 ft | 362 kts | 33° |
| 2026-03-27 15:27 | 45.81678 | 10.58030 | 25269 ft | 363 kts | 33° |
| 2026-03-27 15:27 | 45.83766 | 10.59992 | 25720 ft | 363 kts | 32° |
| 2026-03-27 15:27 | 45.85877 | 10.61976 | 26169 ft | 362 kts | 32° |
| 2026-03-27 15:28 | 45.87984 | 10.63961 | 26571 ft | 362 kts | 32° |
| 2026-03-27 15:28 | 45.90075 | 10.65929 | 26972 ft | 363 kts | 33° |
| 2026-03-27 15:28 | 45.92113 | 10.68082 | 27325 ft | 365 kts | 39° |
| 2026-03-27 15:28 | 45.93941 | 10.70617 | 27690 ft | 368 kts | 45° |
| 2026-03-27 15:29 | 45.95545 | 10.73487 | 28070 ft | 370 kts | 51° |
| 2026-03-27 15:29 | 45.97043 | 10.76499 | 28427 ft | 370 kts | 51° |
| 2026-03-27 15:29 | 45.98505 | 10.79486 | 28812 ft | 372 kts | 51° |
| 2026-03-27 15:29 | 45.99994 | 10.82530 | 29073 ft | 374 kts | 51° |
| 2026-03-27 15:30 | 46.01497 | 10.85612 | 29359 ft | 375 kts | 51° |
| 2026-03-27 15:30 | 46.02974 | 10.88644 | 29673 ft | 374 kts | 51° |
| 2026-03-27 15:30 | 46.04481 | 10.91735 | 30062 ft | 374 kts | 51° |
| 2026-03-27 15:30 | 46.05964 | 10.94777 | 30315 ft | 376 kts | 50° |
| 2026-03-27 15:31 | 46.07470 | 10.97862 | 30578 ft | 379 kts | 51° |
| 2026-03-27 15:31 | 46.08987 | 11.00986 | 30779 ft | 379 kts | 50° |
| 2026-03-27 15:31 | 46.10475 | 11.04051 | 31131 ft | 377 kts | 50° |
| 2026-03-27 15:31 | 46.11942 | 11.07193 | 31372 ft | 380 kts | 53° |
| 2026-03-27 15:32 | 46.13355 | 11.10469 | 31565 ft | 384 kts | 54° |
| 2026-03-27 15:32 | 46.14739 | 11.13724 | 31709 ft | 386 kts | 54° |
| 2026-03-27 15:32 | 46.16137 | 11.17035 | 31945 ft | 386 kts | 54° |
| 2026-03-27 15:32 | 46.17537 | 11.20352 | 32132 ft | 388 kts | 54° |
| 2026-03-27 15:33 | 46.18941 | 11.23679 | 32305 ft | 389 kts | 54° |
| 2026-03-27 15:33 | 46.20325 | 11.26969 | 32500 ft | 389 kts | 54° |
| 2026-03-27 15:33 | 46.21728 | 11.30299 | 32689 ft | 390 kts | 54° |
| 2026-03-27 15:33 | 46.23135 | 11.33648 | 32888 ft | 391 kts | 54° |
| 2026-03-27 15:34 | 46.24555 | 11.37021 | 33024 ft | 393 kts | 54° |
| 2026-03-27 15:34 | 46.25957 | 11.40369 | 33160 ft | 395 kts | 54° |
| 2026-03-27 15:34 | 46.27379 | 11.43768 | 33360 ft | 396 kts | 54° |
| 2026-03-27 15:34 | 46.28804 | 11.47172 | 33555 ft | 396 kts | 54° |
| 2026-03-27 15:35 | 46.30229 | 11.50581 | 33727 ft | 397 kts | 54° |
| 2026-03-27 15:35 | 46.31657 | 11.54004 | 33889 ft | 399 kts | 54° |
| 2026-03-27 15:35 | 46.33074 | 11.57395 | 33923 ft | 401 kts | 54° |
| 2026-03-27 15:36 | 46.35955 | 11.64321 | 33941 ft | 403 kts | 54° |
| 2026-03-27 15:36 | 46.38828 | 11.71303 | 33895 ft | 403 kts | 56° |
| 2026-03-27 15:37 | 46.41462 | 11.78461 | 33883 ft | 406 kts | 58° |
| 2026-03-27 15:37 | 46.44072 | 11.85672 | 33867 ft | 406 kts | 58° |
| 2026-03-27 15:38 | 46.46695 | 11.92904 | 33848 ft | 405 kts | 58° |
| 2026-03-27 15:38 | 46.49311 | 12.00125 | 33828 ft | 406 kts | 58° |
| 2026-03-27 15:39 | 46.51929 | 12.07388 | 33852 ft | 406 kts | 58° |
| 2026-03-27 15:39 | 46.54529 | 12.14605 | 33829 ft | 408 kts | 58° |
| 2026-03-27 15:40 | 46.57144 | 12.21899 | 33893 ft | 409 kts | 58° |
| 2026-03-27 15:40 | 46.59759 | 12.29219 | 33925 ft | 408 kts | 58° |
| 2026-03-27 15:41 | 46.62363 | 12.36517 | 33916 ft | 410 kts | 58° |
| 2026-03-27 15:41 | 46.63675 | 12.40198 | 34077 ft | 412 kts | 58° |
| 2026-03-27 15:41 | 46.64987 | 12.43893 | 34277 ft | 413 kts | 58° |
| 2026-03-27 15:41 | 46.66305 | 12.47596 | 34434 ft | 414 kts | 58° |
| 2026-03-27 15:42 | 46.67719 | 12.51243 | 34569 ft | 415 kts | 55° |
| 2026-03-27 15:42 | 46.69259 | 12.54764 | 34709 ft | 415 kts | 53° |
| 2026-03-27 15:42 | 46.70929 | 12.58180 | 34851 ft | 416 kts | 50° |
| 2026-03-27 15:43 | 46.76669 | 12.67632 | 34922 ft | 413 kts | 42° |
| 2026-03-27 15:43 | 46.80916 | 12.73290 | 34853 ft | 414 kts | 40° |
| 2026-03-27 15:44 | 46.85183 | 12.78883 | 34834 ft | 416 kts | 40° |
| 2026-03-27 15:44 | 46.89473 | 12.84524 | 34859 ft | 415 kts | 40° |
| 2026-03-27 15:45 | 46.93769 | 12.90186 | 34879 ft | 415 kts | 40° |
| 2026-03-27 15:45 | 46.98051 | 12.95841 | 34849 ft | 417 kts | 41° |
| 2026-03-27 15:46 | 47.02337 | 13.01522 | 34866 ft | 416 kts | 40° |
| 2026-03-27 15:46 | 47.06607 | 13.07182 | 34824 ft | 417 kts | 41° |
| 2026-03-27 15:47 | 47.10901 | 13.12889 | 34868 ft | 419 kts | 40° |
| 2026-03-27 15:47 | 47.15201 | 13.18624 | 34866 ft | 418 kts | 41° |
| 2026-03-27 15:48 | 47.19499 | 13.24365 | 34886 ft | 417 kts | 40° |
| 2026-03-27 15:48 | 47.23755 | 13.30062 | 34893 ft | 417 kts | 41° |
| 2026-03-27 15:49 | 47.28045 | 13.35814 | 34914 ft | 418 kts | 41° |
| 2026-03-27 15:49 | 47.32332 | 13.41578 | 34909 ft | 418 kts | 41° |
| 2026-03-27 15:50 | 47.36601 | 13.47333 | 34943 ft | 419 kts | 40° |
| 2026-03-27 15:50 | 47.40884 | 13.53121 | 34950 ft | 418 kts | 41° |
| 2026-03-27 15:51 | 47.45164 | 13.58915 | 34927 ft | 418 kts | 41° |
| 2026-03-27 15:51 | 47.49452 | 13.64733 | 34908 ft | 419 kts | 41° |
| 2026-03-27 15:52 | 47.53748 | 13.70578 | 34905 ft | 419 kts | 41° |
| 2026-03-27 15:52 | 47.58007 | 13.76386 | 34899 ft | 419 kts | 41° |
| 2026-03-27 15:53 | 47.62301 | 13.82251 | 34949 ft | 420 kts | 41° |
| 2026-03-27 15:53 | 47.66557 | 13.88080 | 34959 ft | 421 kts | 42° |
| 2026-03-27 15:54 | 47.70850 | 13.93979 | 34994 ft | 420 kts | 41° |
| 2026-03-27 15:54 | 47.75152 | 13.99896 | 35016 ft | 423 kts | 41° |
| 2026-03-27 15:55 | 47.79430 | 14.05798 | 35031 ft | 422 kts | 42° |
| 2026-03-27 15:55 | 47.83717 | 14.11722 | 35048 ft | 423 kts | 42° |
| 2026-03-27 15:56 | 47.88034 | 14.17707 | 35060 ft | 423 kts | 42° |
| 2026-03-27 15:56 | 47.92322 | 14.23666 | 35071 ft | 424 kts | 42° |
| 2026-03-27 15:57 | 47.96630 | 14.29666 | 35082 ft | 424 kts | 42° |
| 2026-03-27 15:57 | 48.00901 | 14.35628 | 35087 ft | 424 kts | 42° |
| 2026-03-27 15:58 | 48.05209 | 14.41659 | 35096 ft | 424 kts | 42° |
| 2026-03-27 15:58 | 48.09510 | 14.47690 | 35108 ft | 425 kts | 42° |
| 2026-03-27 15:59 | 48.13803 | 14.53730 | 35110 ft | 424 kts | 41° |
| 2026-03-27 15:59 | 48.18105 | 14.59789 | 35099 ft | 424 kts | 42° |
| 2026-03-27 16:00 | 48.22391 | 14.65844 | 35107 ft | 425 kts | 43° |
| 2026-03-27 16:00 | 48.26671 | 14.71909 | 35095 ft | 425 kts | 43° |
| 2026-03-27 16:01 | 48.30964 | 14.78003 | 35085 ft | 426 kts | 43° |
| 2026-03-27 16:01 | 48.35238 | 14.84085 | 35088 ft | 426 kts | 43° |
| 2026-03-27 16:02 | 48.39526 | 14.90201 | 35072 ft | 426 kts | 43° |
| 2026-03-27 16:02 | 48.43823 | 14.96346 | 35065 ft | 426 kts | 43° |
| 2026-03-27 16:03 | 48.48101 | 15.02469 | 35057 ft | 427 kts | 43° |
| 2026-03-27 16:03 | 48.52369 | 15.08604 | 35052 ft | 426 kts | 43° |
| 2026-03-27 16:04 | 48.56647 | 15.14761 | 35044 ft | 427 kts | 43° |
| 2026-03-27 16:04 | 48.60956 | 15.20984 | 35054 ft | 427 kts | 43° |
| 2026-03-27 16:05 | 48.65225 | 15.27167 | 35051 ft | 428 kts | 43° |
| 2026-03-27 16:05 | 48.69497 | 15.33370 | 35054 ft | 429 kts | 43° |
| 2026-03-27 16:06 | 48.73781 | 15.39604 | 35052 ft | 429 kts | 43° |
| 2026-03-27 16:06 | 48.78067 | 15.45857 | 35057 ft | 429 kts | 43° |
| 2026-03-27 16:07 | 48.82373 | 15.52156 | 35048 ft | 429 kts | 43° |
| 2026-03-27 16:07 | 48.86679 | 15.58408 | 35056 ft | 430 kts | 41° |
| 2026-03-27 16:08 | 48.91297 | 15.64120 | 35056 ft | 430 kts | 36° |
| 2026-03-27 16:08 | 48.96177 | 15.69272 | 35061 ft | 430 kts | 34° |
| 2026-03-27 16:09 | 49.01139 | 15.74422 | 35053 ft | 430 kts | 34° |
| 2026-03-27 16:09 | 49.06060 | 15.79548 | 35055 ft | 431 kts | 34° |
| 2026-03-27 16:10 | 49.10982 | 15.84694 | 35056 ft | 430 kts | 34° |
| 2026-03-27 16:10 | 49.15937 | 15.89885 | 35047 ft | 431 kts | 35° |
| 2026-03-27 16:11 | 49.20850 | 15.95051 | 35063 ft | 432 kts | 34° |
| 2026-03-27 16:11 | 49.25798 | 16.00264 | 35065 ft | 433 kts | 34° |
| 2026-03-27 16:12 | 49.30722 | 16.05466 | 35060 ft | 432 kts | 34° |
| 2026-03-27 16:12 | 49.35648 | 16.10679 | 35060 ft | 433 kts | 34° |
| 2026-03-27 16:13 | 49.40591 | 16.15926 | 35059 ft | 432 kts | 34° |
| 2026-03-27 16:13 | 49.45508 | 16.21159 | 35046 ft | 432 kts | 34° |
| 2026-03-27 16:14 | 49.50439 | 16.26418 | 35048 ft | 433 kts | 34° |
| 2026-03-27 16:14 | 49.55387 | 16.31712 | 35054 ft | 433 kts | 34° |
| 2026-03-27 16:15 | 49.60315 | 16.36992 | 35042 ft | 435 kts | 34° |
| 2026-03-27 16:15 | 49.65247 | 16.42293 | 35049 ft | 434 kts | 35° |
| 2026-03-27 16:16 | 49.70192 | 16.47622 | 35042 ft | 435 kts | 35° |
| 2026-03-27 16:16 | 49.75146 | 16.52974 | 35049 ft | 435 kts | 35° |
| 2026-03-27 16:17 | 49.80095 | 16.58336 | 35065 ft | 434 kts | 34° |
| 2026-03-27 16:17 | 49.85023 | 16.63686 | 35062 ft | 435 kts | 34° |
| 2026-03-27 16:18 | 49.89987 | 16.69088 | 35056 ft | 436 kts | 35° |
| 2026-03-27 16:18 | 49.94936 | 16.74489 | 35063 ft | 437 kts | 36° |
| 2026-03-27 16:19 | 49.99904 | 16.79924 | 35051 ft | 437 kts | 36° |
| 2026-03-27 16:19 | 50.04831 | 16.85331 | 35060 ft | 436 kts | 35° |
| 2026-03-27 16:20 | 50.09780 | 16.90774 | 35052 ft | 436 kts | 35° |
| 2026-03-27 16:20 | 50.14755 | 16.96259 | 35045 ft | 438 kts | 36° |
| 2026-03-27 16:21 | 50.19699 | 17.01726 | 35027 ft | 438 kts | 35° |
| 2026-03-27 16:21 | 50.24648 | 17.07211 | 35022 ft | 437 kts | 35° |
| 2026-03-27 16:22 | 50.29594 | 17.12702 | 35019 ft | 439 kts | 35° |
| 2026-03-27 16:22 | 50.34553 | 17.18228 | 35048 ft | 439 kts | 36° |
| 2026-03-27 16:23 | 50.39526 | 17.23786 | 35090 ft | 439 kts | 35° |
| 2026-03-27 16:23 | 50.44485 | 17.29340 | 35088 ft | 439 kts | 36° |
| 2026-03-27 16:24 | 50.49455 | 17.34919 | 35109 ft | 440 kts | 36° |
| 2026-03-27 16:24 | 50.54394 | 17.40480 | 35106 ft | 441 kts | 36° |
| 2026-03-27 16:25 | 50.59344 | 17.46072 | 35107 ft | 440 kts | 36° |
| 2026-03-27 16:26 | 50.66810 | 17.54526 | 35114 ft | 441 kts | 36° |
| 2026-03-27 16:26 | 50.71743 | 17.60130 | 35115 ft | 441 kts | 36° |
| 2026-03-27 16:27 | 50.76713 | 17.65794 | 35114 ft | 441 kts | 37° |
| 2026-03-27 16:27 | 50.81706 | 17.71500 | 35111 ft | 443 kts | 37° |
| 2026-03-27 16:28 | 50.86688 | 17.77209 | 35112 ft | 443 kts | 36° |
| 2026-03-27 16:28 | 50.91642 | 17.82899 | 35109 ft | 443 kts | 36° |
| 2026-03-27 16:29 | 50.96620 | 17.88633 | 35106 ft | 444 kts | 36° |
| 2026-03-27 16:29 | 51.01609 | 17.94397 | 35107 ft | 444 kts | 36° |
| 2026-03-27 16:30 | 51.06583 | 18.00156 | 35107 ft | 445 kts | 36° |
| 2026-03-27 16:30 | 51.11558 | 18.05932 | 35106 ft | 444 kts | 36° |
| 2026-03-27 16:31 | 51.16531 | 18.11719 | 35107 ft | 444 kts | 36° |
| 2026-03-27 16:31 | 51.21012 | 18.18411 | 35018 ft | 444 kts | 52° |
| 2026-03-27 16:31 | 51.22728 | 18.22478 | 34550 ft | 446 kts | 60° |
| 2026-03-27 16:32 | 51.24065 | 18.26907 | 33926 ft | 448 kts | 66° |
| 2026-03-27 16:32 | 51.25260 | 18.31521 | 33261 ft | 452 kts | 68° |
| 2026-03-27 16:32 | 51.26426 | 18.36123 | 32793 ft | 452 kts | 69° |
| 2026-03-27 16:32 | 51.27596 | 18.40751 | 32410 ft | 448 kts | 70° |
| 2026-03-27 16:33 | 51.28757 | 18.45331 | 32009 ft | 445 kts | 71° |
| 2026-03-27 16:33 | 51.29911 | 18.49883 | 31589 ft | 444 kts | 71° |
| 2026-03-27 16:33 | 51.31067 | 18.54443 | 31135 ft | 441 kts | 72° |
| 2026-03-27 16:33 | 51.32194 | 18.58902 | 30608 ft | 438 kts | 72° |
| 2026-03-27 16:34 | 51.33325 | 18.63383 | 30079 ft | 434 kts | 72° |
| 2026-03-27 16:34 | 51.34446 | 18.67834 | 29519 ft | 430 kts | 73° |
| 2026-03-27 16:34 | 51.35570 | 18.72292 | 28924 ft | 428 kts | 73° |
| 2026-03-27 16:34 | 51.36677 | 18.76696 | 28359 ft | 425 kts | 73° |
| 2026-03-27 16:35 | 51.37767 | 18.81036 | 27846 ft | 420 kts | 72° |
| 2026-03-27 16:35 | 51.38836 | 18.85289 | 27342 ft | 415 kts | 72° |
| 2026-03-27 16:35 | 51.39904 | 18.89549 | 26835 ft | 412 kts | 72° |
| 2026-03-27 16:35 | 51.40960 | 18.93783 | 26249 ft | 409 kts | 72° |
| 2026-03-27 16:36 | 51.42010 | 18.97988 | 25713 ft | 406 kts | 71° |
| 2026-03-27 16:36 | 51.43053 | 19.02174 | 25165 ft | 402 kts | 71° |
| 2026-03-27 16:36 | 51.44071 | 19.06258 | 24666 ft | 399 kts | 71° |
| 2026-03-27 16:36 | 51.45088 | 19.10348 | 24160 ft | 394 kts | 71° |
| 2026-03-27 16:37 | 51.46098 | 19.14412 | 23622 ft | 390 kts | 70° |
| 2026-03-27 16:37 | 51.47087 | 19.18400 | 23362 ft | 380 kts | 71° |
| 2026-03-27 16:37 | 51.48048 | 19.22285 | 23011 ft | 373 kts | 71° |
| 2026-03-27 16:37 | 51.48981 | 19.26064 | 22596 ft | 368 kts | 71° |
| 2026-03-27 16:38 | 51.49912 | 19.29856 | 22144 ft | 364 kts | 70° |
| 2026-03-27 16:38 | 51.50833 | 19.33610 | 21691 ft | 361 kts | 70° |
| 2026-03-27 16:38 | 51.51745 | 19.37324 | 21209 ft | 358 kts | 70° |
| 2026-03-27 16:38 | 51.52649 | 19.41015 | 20771 ft | 354 kts | 70° |
| 2026-03-27 16:39 | 51.53541 | 19.44664 | 20334 ft | 350 kts | 70° |
| 2026-03-27 16:39 | 51.54425 | 19.48286 | 19885 ft | 347 kts | 70° |
| 2026-03-27 16:39 | 51.55297 | 19.51866 | 19444 ft | 344 kts | 69° |
| 2026-03-27 16:39 | 51.56158 | 19.55411 | 19031 ft | 341 kts | 69° |
| 2026-03-27 16:40 | 51.57016 | 19.58935 | 18576 ft | 339 kts | 69° |
| 2026-03-27 16:40 | 51.58144 | 19.62240 | 18046 ft | 340 kts | 51° |
| 2026-03-27 16:40 | 51.59978 | 19.64603 | 17529 ft | 343 kts | 28° |
| 2026-03-27 16:40 | 51.62185 | 19.66084 | 17028 ft | 343 kts | 24° |
| 2026-03-27 16:41 | 51.64388 | 19.67492 | 16522 ft | 342 kts | 24° |
| 2026-03-27 16:41 | 51.66593 | 19.68914 | 16020 ft | 341 kts | 24° |
| 2026-03-27 16:41 | 51.68795 | 19.70188 | 15503 ft | 342 kts | 15° |
| 2026-03-27 16:41 | 51.71164 | 19.70330 | 14975 ft | 346 kts | 354° |
| 2026-03-27 16:42 | 51.73500 | 19.69339 | 14495 ft | 346 kts | 344° |
| 2026-03-27 16:42 | 51.75774 | 19.68167 | 14110 ft | 341 kts | 343° |
| 2026-03-27 16:42 | 51.78016 | 19.67001 | 13725 ft | 337 kts | 344° |
| 2026-03-27 16:43 | 51.82495 | 19.66251 | 12959 ft | 323 kts | 10° |
| 2026-03-27 16:43 | 51.84694 | 19.66816 | 12627 ft | 317 kts | 12° |
| 2026-03-27 16:43 | 51.86852 | 19.67392 | 12291 ft | 312 kts | 11° |
| 2026-03-27 16:43 | 51.88982 | 19.67913 | 11957 ft | 307 kts | 10° |
| 2026-03-27 16:44 | 51.91066 | 19.68382 | 11634 ft | 303 kts | 9° |
| 2026-03-27 16:44 | 51.93145 | 19.68822 | 11296 ft | 299 kts | 9° |
| 2026-03-27 16:44 | 51.95188 | 19.69236 | 11052 ft | 291 kts | 9° |
| 2026-03-27 16:44 | 51.97149 | 19.69626 | 11048 ft | 280 kts | 9° |
| 2026-03-27 16:45 | 51.98998 | 19.70424 | 11012 ft | 270 kts | 30° |
| 2026-03-27 16:45 | 52.00532 | 19.72094 | 10774 ft | 262 kts | 40° |
| 2026-03-27 16:45 | 52.01928 | 19.73909 | 10472 ft | 259 kts | 41° |
| 2026-03-27 16:45 | 52.03328 | 19.75717 | 10167 ft | 256 kts | 40° |
| 2026-03-27 16:46 | 52.04733 | 19.77469 | 9849 ft | 254 kts | 39° |
| 2026-03-27 16:46 | 52.06148 | 19.79188 | 9490 ft | 253 kts | 38° |
| 2026-03-27 16:46 | 52.07559 | 19.80872 | 9144 ft | 252 kts | 38° |
| 2026-03-27 16:46 | 52.08953 | 19.82517 | 8805 ft | 250 kts | 38° |
| 2026-03-27 16:47 | 52.10360 | 19.84168 | 8476 ft | 248 kts | 37° |
| 2026-03-27 16:47 | 52.11761 | 19.85806 | 8138 ft | 246 kts | 37° |
| 2026-03-27 16:47 | 52.13161 | 19.87440 | 7792 ft | 244 kts | 38° |
| 2026-03-27 16:47 | 52.14516 | 19.89024 | 7462 ft | 242 kts | 37° |
| 2026-03-27 16:48 | 52.15881 | 19.90617 | 7172 ft | 239 kts | 37° |
| 2026-03-27 16:48 | 52.17229 | 19.92189 | 6905 ft | 235 kts | 37° |
| 2026-03-27 16:48 | 52.18528 | 19.93704 | 6649 ft | 230 kts | 37° |
| 2026-03-27 16:48 | 52.19823 | 19.95218 | 6388 ft | 227 kts | 37° |
| 2026-03-27 16:49 | 52.21085 | 19.96696 | 6138 ft | 226 kts | 37° |
| 2026-03-27 16:49 | 52.22339 | 19.98256 | 5873 ft | 224 kts | 43° |
| 2026-03-27 16:49 | 52.23438 | 20.00031 | 5622 ft | 223 kts | 46° |
| 2026-03-27 16:49 | 52.24490 | 20.01836 | 5364 ft | 221 kts | 47° |
| 2026-03-27 16:50 | 52.25554 | 20.03647 | 5106 ft | 219 kts | 46° |
| 2026-03-27 16:50 | 52.26614 | 20.05433 | 4843 ft | 218 kts | 46° |
| 2026-03-27 16:50 | 52.27661 | 20.07183 | 4585 ft | 215 kts | 45° |
| 2026-03-27 16:50 | 52.28704 | 20.08911 | 4329 ft | 213 kts | 45° |
| 2026-03-27 16:51 | 52.29734 | 20.10614 | 4077 ft | 212 kts | 44° |
| 2026-03-27 16:51 | 52.30770 | 20.12325 | 3822 ft | 213 kts | 44° |
| 2026-03-27 16:51 | 52.31805 | 20.14033 | 3565 ft | 210 kts | 44° |
| 2026-03-27 16:51 | 52.32829 | 20.15726 | 3405 ft | 207 kts | 44° |
| 2026-03-27 16:52 | 52.33833 | 20.17384 | 3404 ft | 207 kts | 44° |
| 2026-03-27 16:52 | 52.34850 | 20.19065 | 3400 ft | 208 kts | 44° |
| 2026-03-27 16:52 | 52.35872 | 20.20754 | 3404 ft | 209 kts | 44° |
| 2026-03-27 16:52 | 52.36893 | 20.22444 | 3396 ft | 210 kts | 44° |
| 2026-03-27 16:53 | 52.37926 | 20.24156 | 3401 ft | 211 kts | 44° |
| 2026-03-27 16:53 | 52.38954 | 20.25861 | 3407 ft | 210 kts | 44° |
| 2026-03-27 16:53 | 52.39965 | 20.27538 | 3399 ft | 209 kts | 44° |
| 2026-03-27 16:53 | 52.40997 | 20.29252 | 3401 ft | 209 kts | 45° |
| 2026-03-27 16:54 | 52.41752 | 20.31243 | 3388 ft | 209 kts | 67° |
| 2026-03-27 16:54 | 52.42119 | 20.33499 | 3383 ft | 196 kts | 74° |
| 2026-03-27 16:54 | 52.42368 | 20.35580 | 3376 ft | 184 kts | 76° |
| 2026-03-27 16:54 | 52.42581 | 20.37647 | 3392 ft | 184 kts | 77° |
| 2026-03-27 16:55 | 52.42777 | 20.39726 | 3297 ft | 185 kts | 77° |
| 2026-03-27 16:55 | 52.42965 | 20.41802 | 3025 ft | 183 kts | 77° |
| 2026-03-27 16:55 | 52.43147 | 20.43832 | 2756 ft | 180 kts | 77° |
| 2026-03-27 16:55 | 52.43326 | 20.45826 | 2492 ft | 174 kts | 76° |
| 2026-03-27 16:56 | 52.43500 | 20.47746 | 2243 ft | 165 kts | 76° |
| 2026-03-27 16:56 | 52.43660 | 20.49517 | 2033 ft | 148 kts | 75° |
| 2026-03-27 16:56 | 52.43807 | 20.51134 | 1841 ft | 139 kts | 75° |
| 2026-03-27 16:56 | 52.43950 | 20.52663 | 1666 ft | 137 kts | 75° |
| 2026-03-27 16:57 | 52.44094 | 20.54196 | 1497 ft | 136 kts | 75° |
| 2026-03-27 16:57 | 52.44230 | 20.55735 | 1313 ft | 136 kts | 76° |
| 2026-03-27 16:57 | 52.44371 | 20.57265 | 1139 ft | 135 kts | 75° |
| 2026-03-27 16:57 | 52.44520 | 20.58769 | 941 ft | 135 kts | 75° |
| 2026-03-27 16:58 | 52.44655 | 20.60296 | 748 ft | 135 kts | 77° |
| 2026-03-27 16:58 | 52.44791 | 20.61800 | 565 ft | 134 kts | 76° |
| 2026-03-27 16:58 | 52.44944 | 20.63312 | 398 ft | 134 kts | 77° |
| 2026-03-27 16:58 | 52.45083 | 20.64739 | 347 ft | 110 kts | 82° |
| 2026-03-27 16:59 | 52.45173 | 20.65710 | 350 ft | 59 kts | 82° |
| 2026-03-27 16:59 | 52.45219 | 20.66216 | 350 ft | 41 kts | 81° |
| 2026-03-27 16:59 | 52.45259 | 20.66648 | 349 ft | 31 kts | 80° |
| 2026-03-27 16:59 | 52.45281 | 20.66907 | 348 ft | 17 kts | 97° |
| 2026-03-27 17:00 | 52.45202 | 20.67021 | 348 ft | 15 kts | 161° |
| 2026-03-27 17:00 | 52.45113 | 20.67048 | 349 ft | 11 kts | 174° |
| 2026-03-27 17:00 | 52.45033 | 20.67063 | 350 ft | 11 kts | 173° |
| 2026-03-27 17:00 | 52.44965 | 20.67036 | 350 ft | 10 kts | 232° |
| 2026-03-27 17:01 | 52.44946 | 20.66918 | 351 ft | 11 kts | 261° |
| 2026-03-27 17:01 | 52.44934 | 20.66779 | 351 ft | 13 kts | 262° |
| 2026-03-27 17:01 | 52.44919 | 20.66619 | 352 ft | 14 kts | 261° |
| 2026-03-27 17:01 | 52.44904 | 20.66456 | 352 ft | 14 kts | 262° |
| 2026-03-27 17:02 | 52.44888 | 20.66291 | 353 ft | 14 kts | 261° |
| 2026-03-27 17:02 | 52.44873 | 20.66127 | 353 ft | 14 kts | 261° |
| 2026-03-27 17:02 | 52.44856 | 20.65956 | 353 ft | 15 kts | 261° |
| 2026-03-27 17:02 | 52.44839 | 20.65782 | 353 ft | 15 kts | 261° |
| 2026-03-27 17:03 | 52.44826 | 20.65634 | 352 ft | 7 kts | 259° |
| 2026-03-27 17:03 | 52.44796 | 20.65593 | 352 ft | 2 kts | 206° |
| 2026-03-27 17:03 | 52.44778 | 20.65579 | 352 ft | 1 kts | 206° |